Time;durP1;ratioP1;P1;durP2;ratioP2;P2;SDS_P1;SDS_P2;PMS_P1;PMS_P2;Temp;Humidity;BMP_temperature;BMP_pressure;BME280_temperature;BME280_humidity;BME280_pressure;Samples;Min_cycle;Max_cycle;Signal;HPM_P1;HPM_P2
2024/04/11 00:00:38;;;;;;;6.38;2.90;;;7.10;100.00;;;;;;5450390;26;19998;-77
2024/04/11 00:03:05;;;;;;;10.35;3.30;;;7.00;100.00;;;;;;5457039;26;20065;-77
2024/04/11 00:05:32;;;;;;;7.47;2.53;;;6.90;100.00;;;;;;5452315;26;19998;-77
2024/04/11 00:07:59;;;;;;;10.02;2.88;;;6.90;100.00;;;;;;5457572;26;20584;-77
2024/04/11 00:10:26;;;;;;;12.77;3.42;;;6.80;100.00;;;;;;5453938;26;20005;-77
2024/04/11 00:12:54;;;;;;;8.27;2.90;;;6.70;100.00;;;;;;5448646;26;20005;-77
2024/04/11 00:15:21;;;;;;;7.63;2.92;;;6.60;100.00;;;;;;5447909;26;20022;-77
2024/04/11 00:17:48;;;;;;;8.63;2.72;;;6.60;100.00;;;;;;5444431;26;20006;-77
2024/04/11 00:20:15;;;;;;;4.88;2.35;;;6.50;100.00;;;;;;5443490;26;20003;-77
2024/04/11 00:22:42;;;;;;;11.23;3.10;;;6.50;100.00;;;;;;5447903;26;20018;-77
2024/04/11 00:25:09;;;;;;;8.20;3.40;;;6.40;100.00;;;;;;5441916;26;21472;-77
2024/04/11 00:27:37;;;;;;;7.75;3.00;;;6.40;100.00;;;;;;5442270;26;20015;-78
2024/04/11 00:30:04;;;;;;;12.25;3.67;;;6.40;100.00;;;;;;5449539;26;20013;-77
2024/04/11 00:32:32;;;;;;;8.52;3.17;;;6.40;100.00;;;;;;5456116;26;20053;-77
2024/04/11 00:35:04;;;;;;;9.50;3.92;;;6.40;100.00;;;;;;5452870;26;20086;-77
2024/04/11 00:37:32;;;;;;;10.60;3.45;;;6.40;100.00;;;;;;5442539;26;20002;-77
2024/04/11 00:39:59;;;;;;;9.10;3.17;;;6.40;100.00;;;;;;5455876;26;20002;-77
2024/04/11 00:42:26;;;;;;;12.57;4.03;;;6.40;100.00;;;;;;5442389;26;20888;-77
2024/04/11 00:44:53;;;;;;;10.40;3.75;;;6.30;100.00;;;;;;5457375;26;20017;-77
2024/04/11 00:47:20;;;;;;;10.98;3.30;;;6.30;100.00;;;;;;5445673;26;20324;-77
2024/04/11 00:49:48;;;;;;;8.07;3.63;;;6.30;100.00;;;;;;5453479;26;20042;-78
2024/04/11 00:52:15;;;;;;;14.82;3.72;;;6.30;100.00;;;;;;5445199;26;20014;-77
2024/04/11 00:54:42;;;;;;;11.70;3.55;;;6.30;100.00;;;;;;5436781;26;20003;-77
2024/04/11 00:57:09;;;;;;;12.65;4.13;;;6.30;100.00;;;;;;5449073;26;20025;-77
2024/04/11 00:59:40;;;;;;;16.85;4.18;;;6.30;100.00;;;;;;5450487;26;20003;-78
2024/04/11 01:02:12;;;;;;;14.57;4.30;;;6.40;100.00;;;;;;5441262;26;20030;-76
2024/04/11 01:04:39;;;;;;;13.07;3.85;;;6.40;100.00;;;;;;5447422;26;20015;-78
2024/04/11 01:07:09;;;;;;;15.60;4.30;;;6.40;100.00;;;;;;5452080;26;20014;-77
2024/04/11 01:09:43;;;;;;;9.90;4.32;;;6.30;100.00;;;;;;5449720;26;20920;-77
2024/04/11 01:12:14;;;;;;;23.38;4.68;;;6.30;100.00;;;;;;5458979;26;20002;-77
2024/04/11 01:14:42;;;;;;;10.45;4.20;;;6.30;100.00;;;;;;5435473;26;20003;-77
2024/04/11 01:17:14;;;;;;;12.30;4.60;;;6.30;100.00;;;;;;5446964;26;20567;-77
2024/04/11 01:19:47;;;;;;;11.77;4.80;;;6.40;100.00;;;;;;5454331;26;20006;-77
2024/04/11 01:22:15;;;;;;;9.73;4.50;;;6.40;100.00;;;;;;5437129;26;20452;-77
2024/04/11 01:24:42;;;;;;;17.83;5.07;;;6.40;100.00;;;;;;5459289;26;20692;-77
2024/04/11 01:27:12;;;;;;;17.10;3.92;;;6.40;100.00;;;;;;5451270;26;20075;-77
2024/04/11 01:29:39;;;;;;;12.77;4.97;;;6.40;100.00;;;;;;5444025;26;20006;-77
2024/04/11 01:32:07;;;;;;;12.45;4.35;;;6.40;100.00;;;;;;5460069;26;20017;-77
2024/04/11 01:34:35;;;;;;;12.95;5.20;;;6.40;100.00;;;;;;5441144;26;20075;-77
2024/04/11 01:37:03;;;;;;;12.07;4.50;;;6.40;100.00;;;;;;5455539;26;20003;-77
2024/04/11 01:39:31;;;;;;;10.85;5.45;;;6.40;100.00;;;;;;5437898;26;19998;-77
2024/04/11 01:41:58;;;;;;;13.63;5.15;;;6.40;100.00;;;;;;5446590;26;20035;-77
2024/04/11 01:44:27;;;;;;;17.65;5.38;;;6.40;100.00;;;;;;5447643;26;20058;-77
2024/04/11 01:46:58;;;;;;;13.57;5.68;;;6.30;100.00;;;;;;5445145;26;20095;-77
2024/04/11 01:49:25;;;;;;;18.00;5.45;;;6.30;100.00;;;;;;5451783;26;19998;-77
2024/04/11 01:51:52;;;;;;;17.05;5.97;;;6.30;100.00;;;;;;5449948;26;20042;-77
2024/04/11 01:54:21;;;;;;;10.25;4.90;;;6.30;100.00;;;;;;5448679;26;20410;-77
2024/04/11 01:56:48;;;;;;;17.08;6.13;;;6.30;100.00;;;;;;5432855;26;20075;-77
2024/04/11 01:59:18;;;;;;;24.98;6.32;;;6.30;100.00;;;;;;5442268;26;19999;-77
2024/04/11 02:01:45;;;;;;;27.08;7.18;;;6.30;100.00;;;;;;5441867;26;19998;-77
2024/04/11 02:04:12;;;;;;;18.42;7.07;;;6.30;100.00;;;;;;5441562;26;20003;-77
2024/04/11 02:06:39;;;;;;;19.48;7.25;;;6.20;100.00;;;;;;5443089;26;20013;-77
2024/04/11 02:09:09;;;;;;;15.00;6.63;;;6.20;100.00;;;;;;5445238;26;20007;-77
2024/04/11 02:11:41;;;;;;;19.67;7.75;;;6.20;100.00;;;;;;5453588;26;19995;-77
2024/04/11 02:14:08;;;;;;;22.33;7.32;;;6.20;100.00;;;;;;5451179;26;19999;-77
2024/04/11 02:16:36;;;;;;;18.10;7.47;;;6.20;100.00;;;;;;5446331;26;20018;-77
2024/04/11 02:19:06;;;;;;;25.17;7.03;;;6.10;100.00;;;;;;5445215;26;20350;-77
2024/04/11 02:21:34;;;;;;;20.20;7.50;;;6.10;100.00;;;;;;5450582;26;20443;-77
2024/04/11 02:24:02;;;;;;;21.77;8.25;;;6.10;100.00;;;;;;5458506;26;19994;-77
2024/04/11 02:26:29;;;;;;;22.48;7.32;;;6.10;100.00;;;;;;5448990;26;20018;-77
2024/04/11 02:28:56;;;;;;;20.95;8.02;;;6.00;100.00;;;;;;5448327;26;19999;-77
2024/04/11 02:31:23;;;;;;;28.33;8.82;;;6.10;100.00;;;;;;5445522;26;20484;-77
2024/04/11 02:33:50;;;;;;;20.00;7.57;;;6.00;100.00;;;;;;5439080;26;20014;-77
2024/04/11 02:36:18;;;;;;;20.10;8.48;;;6.00;100.00;;;;;;5445471;26;20355;-77
2024/04/11 02:38:46;;;;;;;22.08;8.80;;;6.00;100.00;;;;;;5450713;26;19999;-77
2024/04/11 02:41:13;;;;;;;16.42;7.78;;;6.00;100.00;;;;;;5440167;26;20481;-77
2024/04/11 02:43:40;;;;;;;21.15;8.10;;;6.00;100.00;;;;;;5450088;26;20300;-77
2024/04/11 02:46:15;;;;;;;23.38;8.23;;;6.00;100.00;;;;;;5460097;26;20529;-77
2024/04/11 02:48:43;;;;;;;;;;;6.00;100.00;;;;;;5443830;26;20053;-77
2024/04/11 02:51:15;;;;;;;19.48;8.15;;;6.10;100.00;;;;;;5446949;26;19928;-77
2024/04/11 02:53:45;;;;;;;32.15;8.50;;;6.10;100.00;;;;;;5455521;26;20013;-77
2024/04/11 02:56:12;;;;;;;23.02;8.80;;;6.20;100.00;;;;;;5438145;26;20015;-77
2024/04/11 02:58:39;;;;;;;26.15;8.60;;;6.20;100.00;;;;;;5438213;26;20003;-77
2024/04/11 03:01:09;;;;;;;19.40;8.75;;;6.20;100.00;;;;;;5445001;26;20014;-77
2024/04/11 03:03:37;;;;;;;20.13;8.90;;;6.30;100.00;;;;;;5449733;26;20084;-77
2024/04/11 03:06:09;;;;;;;21.13;7.95;;;6.30;100.00;;;;;;5448435;26;19999;-78
2024/04/11 03:08:40;;;;;;;22.40;8.43;;;6.40;100.00;;;;;;5452749;26;20030;-77
2024/04/11 03:11:09;;;;;;;26.23;8.15;;;6.50;100.00;;;;;;5455924;26;20089;-77
2024/04/11 03:13:39;;;;;;;14.93;6.55;;;6.60;100.00;;;;;;5445054;26;19998;-77
2024/04/11 03:16:11;;;;;;;21.00;7.63;;;6.70;100.00;;;;;;5442414;26;20858;-77
2024/04/11 03:18:39;;;;;;;24.60;7.72;;;6.80;100.00;;;;;;5447564;26;20017;-77
2024/04/11 03:21:07;;;;;;;21.95;7.80;;;6.80;100.00;;;;;;5440382;26;20001;-77
2024/04/11 03:23:35;;;;;;;21.50;7.47;;;6.90;100.00;;;;;;5452880;26;20013;-77
2024/04/11 03:26:02;;;;;;;17.83;6.50;;;6.90;100.00;;;;;;5450853;26;20007;-77
2024/04/11 03:28:29;;;;;;;18.40;7.70;;;7.00;100.00;;;;;;5454096;26;20011;-77
2024/04/11 03:30:57;;;;;;;15.73;7.97;;;7.00;100.00;;;;;;5450142;26;19999;-77
2024/04/11 03:33:26;;;;;;;21.50;8.10;;;7.10;100.00;;;;;;5455673;26;20010;-77
2024/04/11 03:35:54;;;;;;;18.98;7.13;;;7.10;100.00;;;;;;5444655;26;20030;-77
2024/04/11 03:38:21;;;;;;;22.77;7.82;;;7.20;100.00;;;;;;5434984;26;19998;-77
2024/04/11 03:40:58;;;;;;;15.52;7.70;;;7.10;100.00;;;;;;5450289;26;20007;-77
2024/04/11 03:43:28;;;;;;;23.38;7.45;;;7.10;100.00;;;;;;5448766;26;20014;-77
2024/04/11 03:46:07;;;;;;;28.15;7.78;;;7.20;100.00;;;;;;5454177;26;19999;-77
2024/04/11 03:48:40;;;;;;;19.63;7.80;;;7.20;100.00;;;;;;5442845;26;19999;-76
2024/04/11 03:51:17;;;;;;;24.45;7.95;;;7.20;100.00;;;;;;5458089;26;20099;-77
2024/04/11 03:53:45;;;;;;;12.73;7.07;;;7.20;100.00;;;;;;5452451;26;20068;-77
2024/04/11 03:56:14;;;;;;;21.77;8.40;;;7.30;100.00;;;;;;5455498;26;20002;-77
2024/04/11 03:58:42;;;;;;;19.83;7.78;;;7.20;100.00;;;;;;5448546;26;20542;-77
2024/04/11 04:01:15;;;;;;;21.83;8.32;;;7.30;100.00;;;;;;5451425;26;20007;-77
2024/04/11 04:03:43;;;;;;;20.58;7.93;;;7.30;100.00;;;;;;5444920;26;19999;-77
2024/04/11 04:06:13;;;;;;;15.85;7.32;;;7.30;100.00;;;;;;5431431;26;20010;-77
2024/04/11 04:08:46;;;;;;;17.23;7.35;;;7.30;100.00;;;;;;5452869;26;20730;-77
2024/04/11 04:11:15;;;;;;;25.02;7.22;;;7.30;100.00;;;;;;5430657;26;19999;-77
2024/04/11 04:13:42;;;;;;;19.50;7.22;;;7.30;100.00;;;;;;5447623;26;20002;-77
2024/04/11 04:16:16;;;;;;;13.65;6.95;;;7.40;100.00;;;;;;5433298;26;20009;-78
2024/04/11 04:18:50;;;;;;;20.75;7.70;;;7.40;100.00;;;;;;5447519;26;20010;-77
2024/04/11 04:21:26;;;;;;;22.83;7.30;;;7.40;100.00;;;;;;5436069;26;20452;-76
2024/04/11 04:23:56;;;;;;;20.67;7.53;;;7.40;100.00;;;;;;5463347;26;20676;-78
2024/04/11 04:26:30;;;;;;;13.13;7.75;;;7.40;100.00;;;;;;5445878;26;20003;-77
2024/04/11 04:29:00;;;;;;;22.67;7.95;;;7.50;100.00;;;;;;5441677;26;19999;-78
2024/04/11 04:31:30;;;;;;;15.63;6.47;;;7.50;100.00;;;;;;5466496;26;20792;-78
2024/04/11 04:34:00;;;;;;;26.33;7.20;;;7.50;100.00;;;;;;5447224;26;20018;-78
2024/04/11 04:36:33;;;;;;;21.45;7.22;;;7.50;100.00;;;;;;5448279;26;20080;-77
2024/04/11 04:39:04;;;;;;;17.05;6.55;;;7.60;100.00;;;;;;5444604;26;20006;-75
2024/04/11 04:41:34;;;;;;;17.13;7.63;;;7.60;100.00;;;;;;5440062;26;20374;-77
2024/04/11 04:44:02;;;;;;;17.15;6.65;;;7.60;100.00;;;;;;5450993;26;19999;-77
2024/04/11 04:46:32;;;;;;;18.02;6.60;;;7.70;100.00;;;;;;5456452;26;20078;-78
2024/04/11 04:49:01;;;;;;;18.27;6.53;;;7.70;100.00;;;;;;5453029;26;20072;-80
2024/04/11 04:51:31;;;;;;;18.83;7.05;;;7.80;100.00;;;;;;5438389;26;19999;-75
2024/04/11 04:54:02;;;;;;;17.38;7.65;;;7.80;100.00;;;;;;5449610;26;20002;-79
2024/04/11 04:56:32;;;;;;;16.80;6.55;;;7.90;100.00;;;;;;5438933;26;20010;-79
2024/04/11 04:59:00;;;;;;;17.88;6.50;;;7.90;100.00;;;;;;5446814;26;20018;-81
2024/04/11 05:01:27;;;;;;;13.82;7.00;;;8.00;100.00;;;;;;5452791;26;20021;-79
2024/04/11 05:03:55;;;;;;;17.50;6.85;;;8.10;100.00;;;;;;5448170;26;20006;-78
2024/04/11 05:06:23;;;;;;;18.15;6.43;;;8.10;100.00;;;;;;5443329;26;20018;-77
2024/04/11 05:08:53;;;;;;;18.00;6.40;;;8.20;100.00;;;;;;5440220;26;20038;-76
2024/04/11 05:11:22;;;;;;;13.82;6.47;;;8.20;100.00;;;;;;5438152;26;20577;-76
2024/04/11 05:13:50;;;;;;;19.00;6.97;;;8.30;100.00;;;;;;5437308;26;20014;-77
2024/04/11 05:16:19;;;;;;;19.38;6.60;;;8.40;100.00;;;;;;5440291;26;20356;-76
2024/04/11 05:18:49;;;;;;;13.88;6.25;;;8.50;100.00;;;;;;5440761;26;20003;-76
2024/04/11 05:21:24;;;;;;;23.42;6.18;;;8.60;100.00;;;;;;5443482;26;20592;-81
2024/04/11 05:23:54;;;;;;;;;;;8.70;100.00;;;;;;5446847;26;20014;-81
2024/04/11 05:26:25;;;;;;;16.13;6.45;;;8.80;100.00;;;;;;5443206;26;20719;-80
2024/04/11 05:28:54;;;;;;;15.57;6.18;;;8.90;100.00;;;;;;5441823;26;20007;-77
2024/04/11 05:31:28;;;;;;;21.70;6.40;;;8.90;100.00;;;;;;5439697;26;19998;-77
2024/04/11 05:34:06;;;;;;;16.75;7.03;;;9.00;100.00;;;;;;5442487;26;19999;-76
2024/04/11 05:36:39;;;;;;;16.90;5.25;;;9.00;100.00;;;;;;5396602;26;20518;-75
2024/04/11 05:39:14;;;;;;;17.17;6.28;;;9.10;100.00;;;;;;5432433;26;22808;-76
2024/04/11 05:41:45;;;;;;;11.47;5.37;;;9.10;100.00;;;;;;5439482;26;20003;-75
2024/04/11 05:44:14;;;;;;;16.75;6.00;;;9.20;100.00;;;;;;5444371;26;20409;-76
2024/04/11 05:46:45;;;;;;;12.30;5.75;;;9.20;100.00;;;;;;5464671;26;19999;-75
2024/04/11 05:49:15;;;;;;;20.02;5.55;;;9.20;100.00;;;;;;5439436;26;20002;-76
2024/04/11 05:51:45;;;;;;;19.08;5.20;;;9.30;100.00;;;;;;5449483;26;20007;-75
2024/04/11 05:54:13;;;;;;;14.82;4.57;;;9.30;100.00;;;;;;5445584;26;20018;-73
2024/04/11 05:56:42;;;;;;;13.38;5.43;;;9.40;100.00;;;;;;5442560;26;20435;-73
2024/04/11 05:59:10;;;;;;;19.13;5.07;;;9.50;100.00;;;;;;5442397;26;20117;-73
2024/04/11 06:01:40;;;;;;;9.68;4.40;;;9.50;100.00;;;;;;5435561;26;20014;-73
2024/04/11 06:04:07;;;;;;;9.85;4.85;;;9.50;100.00;;;;;;5439670;26;20047;-73
2024/04/11 06:06:34;;;;;;;14.98;4.90;;;9.60;100.00;;;;;;5442475;26;20035;-73
2024/04/11 06:09:02;;;;;;;21.13;5.55;;;9.70;100.00;;;;;;5440382;26;20006;-73
2024/04/11 06:11:29;;;;;;;15.57;5.30;;;9.80;100.00;;;;;;5442786;26;20014;-73
2024/04/11 06:13:57;;;;;;;16.08;5.63;;;9.80;100.00;;;;;;5441584;26;20075;-73
2024/04/11 06:16:24;;;;;;;15.10;5.13;;;9.90;100.00;;;;;;5440203;26;19999;-73
2024/04/11 06:18:54;;;;;;;13.55;5.93;;;10.00;100.00;;;;;;5442044;26;19998;-73
2024/04/11 06:21:32;;;;;;;21.17;4.40;;;10.00;100.00;;;;;;5440651;26;20002;-73
2024/04/11 06:24:00;;;;;;;31.98;5.20;;;10.10;100.00;;;;;;5440880;26;20014;-73
2024/04/11 06:26:32;;;;;;;13.10;4.25;;;10.10;100.00;;;;;;5440669;26;20045;-73
2024/04/11 06:29:00;;;;;;;7.25;4.15;;;10.20;100.00;;;;;;5442018;26;20007;-73
2024/04/11 06:31:30;;;;;;;17.67;4.65;;;10.20;100.00;;;;;;5441288;26;19995;-73
2024/04/11 06:33:58;;;;;;;18.30;4.22;;;10.30;100.00;;;;;;5441588;26;20039;-72
2024/04/11 06:36:25;;;;;;;15.32;4.05;;;10.30;100.00;;;;;;5436598;26;20400;-73
2024/04/11 06:38:52;;;;;;;9.15;3.75;;;10.40;100.00;;;;;;5440087;26;20480;-73
2024/04/11 06:41:22;;;;;;;11.20;3.97;;;10.50;100.00;;;;;;5441434;26;20367;-73
2024/04/11 06:43:50;;;;;;;10.27;3.55;;;10.60;100.00;;;;;;5442027;26;20700;-73
2024/04/11 06:46:18;;;;;;;4.93;3.15;;;10.70;100.00;;;;;;5441814;26;19999;-73
2024/04/11 06:48:49;;;;;;;15.90;4.55;;;10.70;100.00;;;;;;5442588;26;20017;-73
2024/04/11 06:51:19;;;;;;;10.70;3.13;;;10.80;100.00;;;;;;5428033;26;20006;-73
2024/04/11 06:53:47;;;;;;;12.38;3.13;;;10.80;100.00;;;;;;5440334;26;20370;-73
2024/04/11 06:56:17;;;;;;;10.63;3.13;;;10.80;100.00;;;;;;5441283;26;19995;-73
2024/04/11 06:58:45;;;;;;;7.82;3.20;;;10.80;100.00;;;;;;5441920;26;20022;-73
2024/04/11 07:01:15;;;;;;;10.68;2.83;;;10.80;100.00;;;;;;5438434;26;19999;-73
2024/04/11 07:03:43;;;;;;;7.03;3.00;;;10.90;100.00;;;;;;5440871;26;20352;-73
2024/04/11 07:06:16;;;;;;;6.88;2.58;;;10.90;100.00;;;;;;5441727;26;20039;-73
2024/04/11 07:08:43;;;;;;;10.27;3.20;;;10.90;100.00;;;;;;5441839;26;20011;-73
2024/04/11 07:11:19;;;;;;;9.73;3.42;;;10.90;100.00;;;;;;5441589;26;20014;-73
2024/04/11 07:13:50;;;;;;;12.82;3.05;;;11.00;100.00;;;;;;5439538;26;20075;-73
2024/04/11 07:16:20;;;;;;;7.18;2.78;;;11.10;100.00;;;;;;5441330;26;19998;-73
2024/04/11 07:18:54;;;;;;;16.10;2.65;;;11.10;100.00;;;;;;5429624;26;19995;-73
2024/04/11 07:21:26;;;;;;;4.32;2.40;;;11.20;100.00;;;;;;5441006;26;19999;-73
2024/04/11 07:23:54;;;;;;;10.50;2.53;;;11.20;100.00;;;;;;5441349;26;20336;-73
2024/04/11 07:26:24;;;;;;;9.20;2.60;;;11.30;100.00;;;;;;5438516;26;20018;-73
2024/04/11 07:28:51;;;;;;;8.05;2.80;;;11.30;100.00;;;;;;5439501;26;20010;-73
2024/04/11 07:31:19;;;;;;;7.78;2.47;;;11.40;100.00;;;;;;5426405;26;20523;-73
2024/04/11 07:33:48;;;;;;;7.00;2.20;;;11.50;100.00;;;;;;5441244;26;20003;-73
2024/04/11 07:36:22;;;;;;;4.95;2.80;;;11.50;100.00;;;;;;5438872;26;20030;-72
2024/04/11 07:38:52;;;;;;;5.82;2.63;;;11.60;100.00;;;;;;5441019;26;20007;-72
2024/04/11 07:41:27;;;;;;;5.22;2.40;;;11.60;100.00;;;;;;5440477;26;20082;-72
2024/04/11 07:43:55;;;;;;;8.60;2.78;;;11.60;100.00;;;;;;5438120;26;20083;-72
2024/04/11 07:46:28;;;;;;;7.45;2.00;;;11.60;100.00;;;;;;5439042;26;20101;-71
2024/04/11 07:49:07;;;;;;;8.75;2.45;;;11.70;100.00;;;;;;5436386;26;20003;-75
2024/04/11 07:51:34;;;;;;;7.25;2.45;;;11.70;100.00;;;;;;5439714;26;20071;-75
2024/04/11 07:54:04;;;;;;;7.93;2.33;;;11.80;100.00;;;;;;5439517;26;19998;-75
2024/04/11 07:56:34;;;;;;;10.82;2.38;;;11.80;100.00;;;;;;5430582;26;20010;-74
2024/04/11 07:59:02;;;;;;;8.00;2.08;;;11.80;100.00;;;;;;5437730;26;20038;-75
2024/04/11 08:01:32;;;;;;;11.27;2.42;;;11.80;100.00;;;;;;5438520;26;20624;-75
2024/04/11 08:04:03;;;;;;;4.30;2.03;;;11.70;100.00;;;;;;5437904;26;20063;-75
2024/04/11 08:06:32;;;;;;;7.25;2.40;;;11.70;100.00;;;;;;5441493;26;20011;-75
2024/04/11 08:08:59;;;;;;;8.05;2.03;;;11.70;100.00;;;;;;5438471;26;20018;-75
2024/04/11 08:11:30;;;;;;;11.85;1.85;;;11.60;100.00;;;;;;5438722;26;20031;-75
2024/04/11 08:13:57;;;;;;;15.10;2.58;;;11.60;100.00;;;;;;5440991;26;20018;-75
2024/04/11 08:16:26;;;;;;;7.55;2.70;;;11.50;100.00;;;;;;5439327;26;20007;-75
2024/04/11 08:18:53;;;;;;;5.57;2.28;;;11.60;100.00;;;;;;5440692;26;20068;-75
2024/04/11 08:21:20;;;;;;;14.38;2.05;;;11.50;100.00;;;;;;5440726;26;20095;-75
2024/04/11 08:23:47;;;;;;;6.05;1.77;;;11.50;100.00;;;;;;5440554;26;19999;-75
2024/04/11 08:26:15;;;;;;;6.53;1.92;;;11.40;100.00;;;;;;5440427;26;20911;-75
2024/04/11 08:28:43;;;;;;;8.48;2.00;;;11.40;100.00;;;;;;5439917;26;20006;-75
2024/04/11 08:31:13;;;;;;;6.97;1.63;;;11.40;100.00;;;;;;5440442;26;19999;-75
2024/04/11 08:33:42;;;;;;;6.10;1.83;;;11.40;100.00;;;;;;5441042;26;20065;-75
2024/04/11 08:36:10;;;;;;;12.02;2.00;;;11.30;100.00;;;;;;5438065;26;20014;-75
2024/04/11 08:38:40;;;;;;;6.72;2.13;;;11.20;100.00;;;;;;5440352;26;19999;-75
2024/04/11 08:41:10;;;;;;;4.72;2.15;;;11.20;100.00;;;;;;5439253;26;20017;-75
2024/04/11 08:43:38;;;;;;;10.85;2.78;;;11.00;100.00;;;;;;5440716;26;20787;-75
2024/04/11 08:46:10;;;;;;;5.70;2.15;;;10.90;100.00;;;;;;5441136;26;20014;-76
2024/04/11 08:48:38;;;;;;;8.20;2.33;;;10.80;100.00;;;;;;5440542;26;20010;-76
2024/04/11 08:51:19;;;;;;;4.03;2.10;;;10.80;100.00;;;;;;5441028;26;20019;-76
2024/04/11 08:53:57;;;;;;;8.65;1.67;;;10.80;100.00;;;;;;5441292;26;20035;-76
2024/04/11 08:56:31;;;;;;;6.30;1.88;;;10.80;100.00;;;;;;5429813;26;20007;-75
2024/04/11 08:58:59;;;;;;;8.07;2.00;;;10.90;100.00;;;;;;5436683;26;20022;-75
2024/04/11 09:01:26;;;;;;;14.68;2.92;;;10.90;100.00;;;;;;5436655;26;19999;-75
2024/04/11 09:03:53;;;;;;;8.63;2.50;;;11.00;100.00;;;;;;5434157;26;20003;-75
2024/04/11 09:06:26;;;;;;;5.45;1.98;;;11.10;100.00;;;;;;5440738;26;20122;-75
2024/04/11 09:08:56;;;;;;;8.02;3.10;;;11.20;100.00;;;;;;5439333;26;20018;-75
2024/04/11 09:11:26;;;;;;;9.80;2.33;;;11.30;100.00;;;;;;5438615;26;20441;-75
2024/04/11 09:13:58;;;;;;;9.02;1.83;;;11.40;100.00;;;;;;5437917;26;20007;-75
2024/04/11 09:16:28;;;;;;;8.45;2.42;;;11.50;100.00;;;;;;5439061;26;20003;-75
2024/04/11 09:19:09;;;;;;;9.20;2.20;;;11.60;100.00;;;;;;5436292;26;20525;-75
2024/04/11 09:21:46;;;;;;;8.65;2.50;;;11.70;100.00;;;;;;5440740;26;20003;-76
2024/04/11 09:24:18;;;;;;;6.85;1.95;;;11.70;100.00;;;;;;5438832;26;20006;-75
2024/04/11 09:26:49;;;;;;;5.90;2.00;;;11.70;100.00;;;;;;5438325;26;20018;-76
2024/04/11 09:29:19;;;;;;;8.55;1.80;;;11.70;100.00;;;;;;5428936;26;20022;-76
2024/04/11 09:31:55;;;;;;;8.10;2.63;;;11.70;100.00;;;;;;5433758;26;20123;-76
2024/04/11 09:34:26;;;;;;;4.47;2.17;;;11.70;100.00;;;;;;5440037;26;20003;-75
2024/04/11 09:36:58;;;;;;;10.25;2.60;;;11.60;100.00;;;;;;5440212;26;19999;-75
2024/04/11 09:39:49;;;;;;;6.80;3.10;;;11.50;100.00;;;;;;5439511;26;20007;-75
2024/04/11 09:42:25;;;;;;;4.68;2.38;;;11.40;100.00;;;;;;5440064;26;20040;-75
2024/04/11 09:44:53;;;;;;;10.93;2.85;;;11.20;100.00;;;;;;5433811;26;19995;-75
2024/04/11 09:47:31;;;;;;;7.22;2.50;;;11.10;100.00;;;;;;5440372;26;20006;-75
2024/04/11 09:50:04;;;;;;;10.93;2.47;;;11.00;100.00;;;;;;5439524;26;20072;-75
2024/04/11 09:52:37;;;;;;;9.63;2.97;;;10.90;100.00;;;;;;5438797;26;20002;-75
2024/04/11 09:55:07;;;;;;;8.93;2.50;;;10.90;100.00;;;;;;5438254;26;19999;-75
2024/04/11 09:57:46;;;;;;;9.48;2.75;;;10.80;100.00;;;;;;5437976;26;20059;-75
2024/04/11 10:00:48;;;;;;;6.38;2.13;;;10.90;100.00;;;;;;5438908;26;20421;-75
2024/04/11 10:03:10;;;;;;;10.73;2.65;;;11.00;100.00;;;;;;5430189;26;20017;-75
2024/04/11 10:05:38;;;;;;;10.27;2.22;;;11.10;100.00;;;;;;5437701;26;20007;-76
2024/04/11 10:08:16;;;;;;;7.60;2.67;;;11.20;100.00;;;;;;5437374;26;20662;-76
2024/04/11 10:10:52;;;;;;;8.27;2.38;;;11.30;100.00;;;;;;5440666;26;20014;-76
2024/04/11 10:13:23;;;;;;;9.27;2.58;;;11.30;100.00;;;;;;5428597;26;20010;-76
2024/04/11 10:16:04;;;;;;;5.90;2.50;;;11.30;100.00;;;;;;5440062;26;20011;-76
2024/04/11 10:18:41;;;;;;;5.93;2.35;;;11.40;100.00;;;;;;5432228;26;20820;-76
2024/04/11 10:21:12;;;;;;;11.65;2.45;;;11.40;100.00;;;;;;5437547;26;20074;-76
2024/04/11 10:23:39;;;;;;;12.90;3.30;;;11.50;100.00;;;;;;5438261;26;20034;-77
2024/04/11 10:26:14;;;;;;;10.93;2.55;;;11.60;100.00;;;;;;5440761;26;20397;-77
2024/04/11 10:28:41;;;;;;;8.75;2.28;;;11.70;100.00;;;;;;5434970;26;20006;-77
2024/04/11 10:31:17;;;;;;;8.02;2.67;;;11.70;100.00;;;;;;5444177;26;20038;-76
2024/04/11 10:33:58;;;;;;;5.32;2.28;;;11.60;100.00;;;;;;5442395;26;19999;-76
2024/04/11 10:36:32;;;;;;;9.50;2.67;;;11.60;100.00;;;;;;5443089;26;20017;-76
2024/04/11 10:39:00;;;;;;;6.40;2.33;;;11.60;100.00;;;;;;5443289;26;20010;-76
2024/04/11 10:41:32;;;;;;;7.22;2.22;;;11.60;100.00;;;;;;5436053;26;20333;-76
2024/04/11 10:44:02;;;;;;;7.82;2.58;;;11.60;100.00;;;;;;5439274;26;20080;-77
2024/04/11 10:46:30;;;;;;;9.25;2.75;;;11.70;100.00;;;;;;5434697;26;20049;-77
2024/04/11 10:49:28;;;;;;;8.95;2.70;;;11.80;100.00;;;;;;5442284;26;20071;-77
2024/04/11 10:51:58;;;;;;;5.65;2.30;;;11.80;100.00;;;;;;5443154;26;19995;-76
2024/04/11 10:54:30;;;;;;;11.00;2.63;;;11.80;100.00;;;;;;5444303;26;20019;-76
2024/04/11 10:56:58;;;;;;;7.25;2.80;;;11.80;100.00;;;;;;5444185;26;20009;-76
2024/04/11 10:59:28;;;;;;;6.72;2.42;;;11.80;100.00;;;;;;5438579;26;20019;-77
2024/04/11 11:02:02;;;;;;;7.95;2.65;;;11.80;100.00;;;;;;5441895;26;20054;-76
2024/04/11 11:04:33;;;;;;;11.02;3.00;;;11.70;100.00;;;;;;5427404;26;20018;-76
2024/04/11 11:07:10;;;;;;;8.00;2.30;;;11.70;100.00;;;;;;5440443;26;20017;-77
2024/04/11 11:09:45;;;;;;;12.00;3.05;;;11.70;100.00;;;;;;5442788;26;20026;-76
2024/04/11 11:12:15;;;;;;;9.05;3.35;;;11.70;100.00;;;;;;5439936;26;20017;-76
2024/04/11 11:14:43;;;;;;;9.93;2.40;;;11.70;100.00;;;;;;5441488;26;20393;-76
2024/04/11 11:17:17;;;;;;;7.43;2.33;;;11.70;100.00;;;;;;5439057;26;20022;-76
2024/04/11 11:19:49;;;;;;;8.52;2.40;;;11.80;100.00;;;;;;5438720;26;20079;-76
2024/04/11 11:22:33;;;;;;;8.40;2.88;;;11.80;100.00;;;;;;5432184;26;20156;-72
2024/04/11 11:25:01;;;;;;;9.07;2.80;;;11.80;100.00;;;;;;5437656;26;20014;-72
2024/04/11 11:27:31;;;;;;;8.25;2.60;;;11.70;100.00;;;;;;5434056;26;20037;-72
2024/04/11 11:29:59;;;;;;;6.22;2.70;;;11.80;100.00;;;;;;5440257;26;19995;-73
2024/04/11 11:32:32;;;;;;;11.23;2.83;;;11.80;100.00;;;;;;5430009;26;20002;-74
2024/04/11 11:35:00;;;;;;;10.13;2.88;;;11.90;100.00;;;;;;5438901;26;19994;-73
2024/04/11 11:37:31;;;;;;;9.77;2.75;;;12.00;100.00;;;;;;5438005;26;19999;-74
2024/04/11 11:42:44;;;;;;;20.15;4.72;;;12.20;100.00;;;;;;5440871;26;20910;-72
2024/04/11 11:45:16;;;;;;;14.93;3.30;;;12.30;100.00;;;;;;5440971;26;20083;-72
2024/04/11 11:47:47;;;;;;;15.27;3.13;;;12.40;100.00;;;;;;5439153;26;20007;-73
2024/04/11 11:50:21;;;;;;;8.45;2.78;;;12.50;100.00;;;;;;5438332;26;20002;-72
2024/04/11 11:52:50;;;;;;;14.73;3.10;;;12.40;100.00;;;;;;5440064;26;20023;-71
2024/04/11 11:55:25;;;;;;;4.70;2.30;;;12.40;100.00;;;;;;5427611;26;20046;-71
2024/04/11 11:58:02;;;;;;;7.55;2.80;;;12.40;100.00;;;;;;5438899;26;20054;-71
2024/04/11 12:00:49;;;;;;;13.57;2.40;;;12.40;100.00;;;;;;5431911;26;20370;-71
2024/04/11 12:03:21;;;;;;;10.63;2.83;;;12.40;100.00;;;;;;5440578;26;20009;-71
2024/04/11 12:06:00;;;;;;;4.25;2.40;;;12.40;100.00;;;;;;5436247;26;20672;-71
2024/04/11 12:08:28;;;;;;;31.50;5.00;;;12.50;100.00;;;;;;5437880;26;19995;-72
2024/04/11 12:13:31;;;;;;;9.90;2.63;;;12.80;100.00;;;;;;5439766;26;20092;-72
2024/04/11 12:15:58;;;;;;;10.80;3.30;;;12.70;100.00;;;;;;5439202;26;19998;-71
2024/04/11 12:18:25;;;;;;;7.82;2.42;;;12.70;100.00;;;;;;5438924;26;20003;-71
2024/04/11 12:20:53;;;;;;;9.93;2.92;;;12.80;100.00;;;;;;5437985;26;20011;-71
2024/04/11 12:23:20;;;;;;;13.98;3.60;;;12.80;100.00;;;;;;5438246;26;20003;-71
2024/04/11 12:25:50;;;;;;;149.32;15.50;;;12.90;100.00;;;;;;5440327;26;20011;-72
2024/04/11 12:28:19;;;;;;;14.18;4.55;;;12.90;100.00;;;;;;5435780;26;19998;-72
2024/04/11 12:30:46;;;;;;;9.05;3.22;;;12.90;100.00;;;;;;5438814;26;20082;-72
2024/04/11 12:33:27;;;;;;;11.85;3.22;;;12.90;100.00;;;;;;5438344;26;20036;-72
2024/04/11 12:35:59;;;;;;;9.43;2.70;;;12.90;100.00;;;;;;5434707;26;20006;-70
2024/04/11 12:38:32;;;;;;;8.07;2.72;;;13.00;100.00;;;;;;5439333;26;20011;-70
2024/04/11 12:41:01;;;;;;;10.75;2.83;;;13.10;100.00;;;;;;5439618;26;20022;-70
2024/04/11 12:43:28;;;;;;;7.53;2.78;;;13.30;100.00;;;;;;5438692;26;20002;-70
2024/04/11 12:45:58;;;;;;;5.40;2.72;;;13.30;100.00;;;;;;5442322;26;20006;-70
2024/04/11 12:48:29;;;;;;;8.68;2.90;;;13.40;100.00;;;;;;5438249;26;19999;-70
2024/04/11 12:50:59;;;;;;;9.50;2.75;;;13.60;100.00;;;;;;5444179;26;20002;-71
2024/04/11 12:53:28;;;;;;;9.73;2.70;;;13.90;100.00;;;;;;5448408;26;20072;-71
2024/04/11 12:55:58;;;;;;;9.50;2.50;;;14.20;100.00;;;;;;5433936;26;20013;-71